createdAt,value
2018-03-06T00:00:14.315Z,1012.86
2018-03-06T00:01:14.297Z,1012.88
2018-03-06T00:02:14.275Z,1012.92
2018-03-06T00:03:14.251Z,1012.96
2018-03-06T00:04:14.207Z,1012.93
2018-03-06T00:05:14.188Z,1012.97
2018-03-06T00:06:14.171Z,1012.93
2018-03-06T00:07:14.106Z,1012.92
2018-03-06T00:08:14.101Z,1012.95
2018-03-06T00:09:14.074Z,1012.95
2018-03-06T00:10:14.069Z,1012.98
2018-03-06T00:11:13.998Z,1013.04
2018-03-06T00:12:13.994Z,1013.05
2018-03-06T00:13:13.973Z,1013.06
2018-03-06T00:14:13.916Z,1013.12
2018-03-06T00:15:13.910Z,1013.08
2018-03-06T00:16:13.887Z,1013.11
2018-03-06T00:17:13.838Z,1013.13
2018-03-06T00:18:13.796Z,1013.07
2018-03-06T00:19:13.788Z,1013.09
2018-03-06T00:20:13.774Z,1013.16
2018-03-06T00:21:13.705Z,1013.17
2018-03-06T00:22:13.711Z,1013.22
2018-03-06T00:23:13.664Z,1013.24
2018-03-06T00:24:13.624Z,1013.28
2018-03-06T00:25:13.612Z,1013.27
2018-03-06T00:26:13.598Z,1013.26
2018-03-06T00:27:13.570Z,1013.25
2018-03-06T00:28:13.521Z,1013.28
2018-03-06T00:29:13.500Z,1013.28
2018-03-06T00:30:13.456Z,1013.33
2018-03-06T00:31:13.461Z,1013.40
2018-03-06T00:32:13.403Z,1013.44
2018-03-06T00:33:13.370Z,1013.47
2018-03-06T00:34:13.353Z,1013.44
2018-03-06T00:35:13.343Z,1013.50
2018-03-06T00:36:13.292Z,1013.51
2018-03-06T00:37:13.285Z,1013.60
2018-03-06T00:38:13.228Z,1013.60
2018-03-06T00:39:13.236Z,1013.64
2018-03-06T00:40:13.180Z,1013.68
2018-03-06T00:41:13.162Z,1013.67
2018-03-06T00:42:13.124Z,1013.71
2018-03-06T00:43:13.087Z,1013.72
2018-03-06T00:44:13.093Z,1013.60
2018-03-06T00:45:13.038Z,1013.70
2018-03-06T00:46:13.034Z,1013.67
2018-03-06T00:47:12.974Z,1013.66
2018-03-06T00:48:12.940Z,1013.76
2018-03-06T00:49:12.906Z,1013.79
2018-03-06T00:50:12.887Z,1013.73
2018-03-06T00:51:12.863Z,1013.82
2018-03-06T00:52:12.839Z,1013.82
2018-03-06T00:53:12.811Z,1013.84
2018-03-06T00:54:12.809Z,1013.89
2018-03-06T00:55:12.747Z,1013.89
2018-03-06T00:56:12.700Z,1013.84
2018-03-06T00:57:12.716Z,1013.92
2018-03-06T00:58:12.668Z,1013.96
2018-03-06T00:59:12.663Z,1013.85
2018-03-06T01:00:12.612Z,1013.95
2018-03-06T01:01:12.575Z,1013.88
2018-03-06T01:02:12.567Z,1013.96
2018-03-06T01:03:12.543Z,1013.96
2018-03-06T01:04:12.477Z,1013.96
2018-03-06T01:05:12.461Z,1013.94
2018-03-06T01:06:12.435Z,1014.00
2018-03-06T01:07:12.427Z,1013.99
2018-03-06T01:08:12.368Z,1014.02
2018-03-06T01:09:12.357Z,1014.01
2018-03-06T01:10:12.307Z,1014.06
2018-03-06T01:11:12.317Z,1014.04
2018-03-06T01:12:12.288Z,1014.05
2018-03-06T01:13:12.219Z,1014.11
2018-03-06T01:14:12.222Z,1014.10
2018-03-06T01:15:12.170Z,1014.11
2018-03-06T01:16:12.155Z,1014.09
2018-03-06T01:17:12.120Z,1014.12
2018-03-06T01:18:12.112Z,1014.20
2018-03-06T01:19:12.071Z,1014.17
2018-03-06T01:20:12.019Z,1014.18
2018-03-06T01:21:11.988Z,1014.15
2018-03-06T01:22:11.954Z,1014.22
2018-03-06T01:23:11.943Z,1014.21
2018-03-06T01:24:11.892Z,1014.26
2018-03-06T01:25:13.078Z,1014.26
2018-03-06T01:26:11.880Z,1014.24
2018-03-06T01:27:11.851Z,1014.21
2018-03-06T01:28:11.822Z,1014.19
2018-03-06T01:29:11.764Z,1014.12
2018-03-06T01:30:11.757Z,1014.17
2018-03-06T01:31:11.703Z,1014.17
2018-03-06T01:32:11.690Z,1014.14
2018-03-06T01:33:11.644Z,1014.22
2018-03-06T01:34:11.636Z,1014.26
2018-03-06T01:35:11.614Z,1014.29
2018-03-06T01:36:11.562Z,1014.34
2018-03-06T01:37:11.528Z,1014.36
2018-03-06T01:38:11.499Z,1014.39
2018-03-06T01:39:11.475Z,1014.39
2018-03-06T01:40:11.447Z,1014.38
2018-03-06T01:41:11.413Z,1014.41
2018-03-06T01:42:11.366Z,1014.42
2018-03-06T01:43:11.355Z,1014.43
2018-03-06T01:44:11.349Z,1014.48
2018-03-06T01:45:11.296Z,1014.51
2018-03-06T01:46:11.248Z,1014.53
2018-03-06T01:47:11.266Z,1014.54
2018-03-06T01:48:11.203Z,1014.54
2018-03-06T01:49:11.170Z,1014.60
2018-03-06T01:50:11.170Z,1014.63
2018-03-06T01:51:11.143Z,1014.58
2018-03-06T01:52:11.096Z,1014.64
2018-03-06T01:53:11.080Z,1014.70
2018-03-06T01:54:11.029Z,1014.72
2018-03-06T01:55:11.019Z,1014.74
2018-03-06T01:56:10.966Z,1014.75
2018-03-06T01:57:10.930Z,1014.70
2018-03-06T01:58:10.938Z,1014.68
2018-03-06T01:59:10.886Z,1014.72
2018-03-06T02:00:10.858Z,1014.70
2018-03-06T02:01:10.855Z,1014.74
2018-03-06T02:02:10.795Z,1014.73
2018-03-06T02:03:10.783Z,1014.70
2018-03-06T02:04:10.736Z,1014.71
2018-03-06T02:05:10.713Z,1014.75
2018-03-06T02:06:10.665Z,1014.72
2018-03-06T02:07:10.671Z,1014.71
2018-03-06T02:08:10.615Z,1014.70
2018-03-06T02:09:10.603Z,1014.70
2018-03-06T02:10:10.590Z,1014.75
2018-03-06T02:11:10.524Z,1014.74
2018-03-06T02:12:10.502Z,1014.78
2018-03-06T02:13:10.476Z,1014.75
2018-03-06T02:14:10.440Z,1014.84
2018-03-06T02:15:10.429Z,1014.82
2018-03-06T02:16:10.408Z,1014.88
2018-03-06T02:17:10.375Z,1014.88
2018-03-06T02:18:10.326Z,1014.95
2018-03-06T02:19:10.299Z,1014.94
2018-03-06T02:20:10.256Z,1014.91
2018-03-06T02:21:10.249Z,1014.97
2018-03-06T02:22:11.091Z,1014.90
2018-03-06T02:23:10.196Z,1014.95
2018-03-06T02:24:10.170Z,1015.01
2018-03-06T02:25:10.108Z,1014.99
2018-03-06T02:26:10.080Z,1015.00
2018-03-06T02:27:10.071Z,1015.00
2018-03-06T02:28:10.036Z,1014.99
2018-03-06T02:29:09.998Z,1014.95
2018-03-06T02:30:09.971Z,1014.95
2018-03-06T02:31:09.934Z,1015.03
2018-03-06T02:32:09.923Z,1014.99
2018-03-06T02:33:09.879Z,1015.05
2018-03-06T02:34:09.855Z,1015.08
2018-03-06T02:35:09.828Z,1015.13
2018-03-06T02:36:09.791Z,1015.15
2018-03-06T02:37:09.763Z,1015.12
2018-03-06T02:38:09.730Z,1015.15
2018-03-06T02:39:09.740Z,1015.13
2018-03-06T02:40:09.695Z,1015.23
2018-03-06T02:41:09.669Z,1015.23
2018-03-06T02:42:09.642Z,1015.19
2018-03-06T02:43:09.572Z,1015.23
2018-03-06T02:44:09.557Z,1015.29
2018-03-06T02:45:09.541Z,1015.26
2018-03-06T02:46:09.485Z,1015.22
2018-03-06T02:47:09.507Z,1015.27
2018-03-06T02:48:09.450Z,1015.30
2018-03-06T02:49:09.421Z,1015.25
2018-03-06T02:50:09.371Z,1015.21
2018-03-06T02:51:09.345Z,1015.26
2018-03-06T02:52:09.335Z,1015.22
2018-03-06T02:53:09.288Z,1015.22
2018-03-06T02:54:09.254Z,1015.14
2018-03-06T02:55:09.223Z,1015.23
2018-03-06T02:56:09.203Z,1015.18
2018-03-06T02:57:09.158Z,1015.15
2018-03-06T02:58:09.135Z,1015.16
2018-03-06T02:59:09.127Z,1015.16
2018-03-06T03:00:09.079Z,1015.14
2018-03-06T03:01:09.047Z,1015.15
2018-03-06T03:02:09.018Z,1015.16
2018-03-06T03:03:09.008Z,1015.21
2018-03-06T03:04:08.961Z,1015.19
2018-03-06T03:05:08.922Z,1015.23
2018-03-06T03:06:08.894Z,1015.26
2018-03-06T03:07:08.886Z,1015.25
2018-03-06T03:08:08.834Z,1015.23
2018-03-06T03:09:08.851Z,1015.26
2018-03-06T03:10:08.782Z,1015.27
2018-03-06T03:11:08.777Z,1015.29
2018-03-06T03:12:08.720Z,1015.29
2018-03-06T03:13:08.703Z,1015.29
2018-03-06T03:14:08.664Z,1015.31
2018-03-06T03:15:08.619Z,1015.28
2018-03-06T03:16:08.620Z,1015.33
2018-03-06T03:17:08.572Z,1015.32
2018-03-06T03:18:08.557Z,1015.33
2018-03-06T03:19:08.529Z,1015.35
2018-03-06T03:20:08.499Z,1015.35
2018-03-06T03:21:08.442Z,1015.30
2018-03-06T03:22:08.424Z,1015.35
2018-03-06T03:23:08.386Z,1015.37
2018-03-06T03:24:08.352Z,1015.40
2018-03-06T03:25:08.327Z,1015.41
2018-03-06T03:26:08.327Z,1015.42
2018-03-06T03:27:08.274Z,1015.42
2018-03-06T03:28:08.233Z,1015.41
2018-03-06T03:29:08.236Z,1015.41
2018-03-06T03:30:08.161Z,1015.41
2018-03-06T03:31:08.143Z,1015.53
2018-03-06T03:32:08.104Z,1015.47
2018-03-06T03:33:08.086Z,1015.46
2018-03-06T03:34:08.061Z,1015.51
2018-03-06T03:35:08.057Z,1015.47
2018-03-06T03:36:08.027Z,1015.43
2018-03-06T03:37:07.960Z,1015.45
2018-03-06T03:38:07.976Z,1015.46
2018-03-06T03:39:07.926Z,1015.42
2018-03-06T03:40:07.873Z,1015.43
2018-03-06T03:41:07.845Z,1015.45
2018-03-06T03:42:07.838Z,1015.44
2018-03-06T03:43:07.809Z,1015.45
2018-03-06T03:44:07.761Z,1015.51
2018-03-06T03:45:07.756Z,1015.50
2018-03-06T03:46:07.728Z,1015.51
2018-03-06T03:47:07.662Z,1015.49
2018-03-06T03:48:07.628Z,1015.54
2018-03-06T03:49:07.613Z,1015.53
2018-03-06T03:50:07.593Z,1015.48
2018-03-06T03:51:07.553Z,1015.54
2018-03-06T03:52:07.544Z,1015.51
2018-03-06T03:53:07.492Z,1015.56
2018-03-06T03:54:07.448Z,1015.53
2018-03-06T03:55:07.416Z,1015.52
2018-03-06T03:56:07.404Z,1015.52
2018-03-06T03:57:07.378Z,1015.48
2018-03-06T03:58:07.338Z,1015.44
2018-03-06T03:59:07.299Z,1015.51
2018-03-06T04:00:07.302Z,1015.45
2018-03-06T04:01:07.240Z,1015.46
2018-03-06T04:02:07.236Z,1015.45
2018-03-06T04:03:08.116Z,1015.43
2018-03-06T04:04:07.142Z,1015.47
2018-03-06T04:05:07.106Z,1015.43
2018-03-06T04:06:07.101Z,1015.45
2018-03-06T04:07:07.628Z,1015.42
2018-03-06T04:08:07.028Z,1015.46
2018-03-06T04:09:07.029Z,1015.45
2018-03-06T04:10:06.973Z,1015.42
2018-03-06T04:11:06.969Z,1015.46
2018-03-06T04:12:06.943Z,1015.47
2018-03-06T04:13:06.897Z,1015.44
2018-03-06T04:14:06.857Z,1015.42
2018-03-06T04:15:06.839Z,1015.43
2018-03-06T04:16:06.812Z,1015.44
2018-03-06T04:17:06.776Z,1015.44
2018-03-06T04:18:06.727Z,1015.40
2018-03-06T04:19:06.703Z,1015.42
2018-03-06T04:20:06.689Z,1015.45
2018-03-06T04:21:06.632Z,1015.40
2018-03-06T04:22:06.600Z,1015.44
2018-03-06T04:23:06.599Z,1015.43
2018-03-06T04:24:06.593Z,1015.43
2018-03-06T04:25:06.522Z,1015.43
2018-03-06T04:26:06.507Z,1015.40
2018-03-06T04:27:06.441Z,1015.44
2018-03-06T04:28:06.444Z,1015.46
2018-03-06T04:29:06.395Z,1015.45
2018-03-06T04:30:06.365Z,1015.48
2018-03-06T04:31:06.352Z,1015.47
2018-03-06T04:32:06.330Z,1015.50
2018-03-06T04:33:06.271Z,1015.47
2018-03-06T04:34:06.269Z,1015.46
2018-03-06T04:35:06.197Z,1015.48
2018-03-06T04:36:06.203Z,1015.50
2018-03-06T04:37:06.152Z,1015.49
2018-03-06T04:38:06.624Z,1015.40
2018-03-06T04:39:06.097Z,1015.43
2018-03-06T04:40:06.064Z,1015.36
2018-03-06T04:41:06.019Z,1015.42
2018-03-06T04:42:05.992Z,1015.45
2018-03-06T04:43:05.974Z,1015.46
2018-03-06T04:44:05.921Z,1015.45
2018-03-06T04:45:05.933Z,1015.44
2018-03-06T04:46:05.875Z,1015.40
2018-03-06T04:47:05.847Z,1015.49
2018-03-06T04:48:05.811Z,1015.40
2018-03-06T04:49:05.806Z,1015.42
2018-03-06T04:50:05.754Z,1015.35
2018-03-06T04:51:05.728Z,1015.44
2018-03-06T04:52:05.721Z,1015.43
2018-03-06T04:53:05.673Z,1015.47
2018-03-06T04:54:05.626Z,1015.44
2018-03-06T04:55:05.630Z,1015.49
2018-03-06T04:56:05.589Z,1015.45
2018-03-06T04:57:05.536Z,1015.43
2018-03-06T04:58:05.497Z,1015.45
2018-03-06T04:59:05.478Z,1015.50
2018-03-06T05:00:05.422Z,1015.48
2018-03-06T05:01:05.443Z,1015.44
2018-03-06T05:02:05.397Z,1015.52
2018-03-06T05:03:05.361Z,1015.44
2018-03-06T05:04:05.340Z,1015.45
2018-03-06T05:05:05.295Z,1015.39
2018-03-06T05:06:05.277Z,1015.43
2018-03-06T05:07:05.238Z,1015.43
2018-03-06T05:08:05.229Z,1015.40
2018-03-06T05:09:06.146Z,1015.42
2018-03-06T05:10:05.144Z,1015.39
2018-03-06T05:11:05.200Z,1015.41
2018-03-06T05:12:05.080Z,1015.40
2018-03-06T05:13:05.078Z,1015.41
2018-03-06T05:14:05.020Z,1015.39
2018-03-06T05:15:05.010Z,1015.34
2018-03-06T05:16:04.987Z,1015.37
2018-03-06T05:17:04.955Z,1015.38
2018-03-06T05:18:04.912Z,1015.41
2018-03-06T05:19:04.884Z,1015.37
2018-03-06T05:20:04.837Z,1015.36
2018-03-06T05:21:04.808Z,1015.39
2018-03-06T05:22:04.764Z,1015.36
2018-03-06T05:23:04.761Z,1015.31
2018-03-06T05:24:04.738Z,1015.36
2018-03-06T05:25:04.686Z,1015.35
2018-03-06T05:26:04.669Z,1015.39
2018-03-06T05:27:04.605Z,1015.31
2018-03-06T05:28:04.585Z,1015.31
2018-03-06T05:29:04.577Z,1015.32
2018-03-06T05:30:04.552Z,1015.29
2018-03-06T05:31:04.480Z,1015.27
2018-03-06T05:32:04.479Z,1015.28
2018-03-06T05:33:04.461Z,1015.27
2018-03-06T05:34:04.394Z,1015.29
2018-03-06T05:35:04.362Z,1015.30
2018-03-06T05:36:04.343Z,1015.28
2018-03-06T05:37:04.315Z,1015.28
2018-03-06T05:38:04.282Z,1015.28
2018-03-06T05:39:04.246Z,1015.26
2018-03-06T05:40:04.225Z,1015.26
2018-03-06T05:41:04.184Z,1015.27
2018-03-06T05:42:04.163Z,1015.23
2018-03-06T05:43:04.120Z,1015.24
2018-03-06T05:44:04.092Z,1015.23
2018-03-06T05:45:04.079Z,1015.24
2018-03-06T05:46:04.636Z,1015.21
2018-03-06T05:47:04.023Z,1015.20
2018-03-06T05:48:03.993Z,1015.18
2018-03-06T05:49:03.933Z,1015.18
2018-03-06T05:50:03.891Z,1015.17
2018-03-06T05:51:03.876Z,1015.12
2018-03-06T05:52:03.851Z,1015.13
2018-03-06T05:53:03.831Z,1015.16
2018-03-06T05:54:03.776Z,1015.12
2018-03-06T05:55:03.748Z,1015.12
2018-03-06T05:56:03.713Z,1015.12
2018-03-06T05:57:03.689Z,1015.12
2018-03-06T05:58:03.687Z,1015.12
2018-03-06T05:59:03.636Z,1015.12
2018-03-06T06:00:03.631Z,1015.16
2018-03-06T06:01:03.560Z,1015.14
2018-03-06T06:02:03.529Z,1015.13
2018-03-06T06:03:03.495Z,1015.12
2018-03-06T06:04:03.468Z,1015.08
2018-03-06T06:05:03.424Z,1015.11
2018-03-06T06:06:03.442Z,1015.07
2018-03-06T06:07:03.389Z,1015.06
2018-03-06T06:08:03.374Z,1015.07
2018-03-06T06:09:03.311Z,1015.06
2018-03-06T06:10:03.317Z,1015.00
2018-03-06T06:11:03.261Z,1015.07
2018-03-06T06:12:03.216Z,1015.03
2018-03-06T06:13:03.205Z,1015.07
2018-03-06T06:14:03.195Z,1015.03
2018-03-06T06:15:03.126Z,1015.07
2018-03-06T06:16:03.100Z,1015.07
2018-03-06T06:17:03.095Z,1015.04
2018-03-06T06:18:03.042Z,1015.07
2018-03-06T06:19:03.030Z,1015.07
2018-03-06T06:20:02.997Z,1015.03
2018-03-06T06:21:02.941Z,1015.07
2018-03-06T06:22:02.921Z,1015.02
2018-03-06T06:23:02.911Z,1015.06
2018-03-06T06:24:02.890Z,1015.07
2018-03-06T06:25:02.809Z,1014.98
2018-03-06T06:26:02.798Z,1015.07
2018-03-06T06:27:02.759Z,1015.06
2018-03-06T06:28:02.744Z,1015.11
2018-03-06T06:29:02.691Z,1015.11
2018-03-06T06:30:02.699Z,1015.11
2018-03-06T06:31:02.638Z,1015.14
2018-03-06T06:32:02.636Z,1015.11
2018-03-06T06:33:02.608Z,1015.12
2018-03-06T06:34:02.563Z,1015.14
2018-03-06T06:35:02.535Z,1015.15
2018-03-06T06:36:02.486Z,1015.13
2018-03-06T06:37:02.465Z,1015.13
2018-03-06T06:38:02.449Z,1015.16
2018-03-06T06:39:02.413Z,1015.23
2018-03-06T06:40:02.378Z,1015.20
2018-03-06T06:41:02.357Z,1015.24
2018-03-06T06:42:02.308Z,1015.24
2018-03-06T06:43:02.276Z,1015.20
2018-03-06T06:44:02.256Z,1015.25
2018-03-06T06:45:02.203Z,1015.22
2018-03-06T06:46:02.202Z,1015.26
2018-03-06T06:47:02.137Z,1015.25
2018-03-06T06:48:02.088Z,1015.24
2018-03-06T06:49:02.071Z,1015.20
2018-03-06T06:50:02.059Z,1015.16
2018-03-06T06:51:02.020Z,1015.15
2018-03-06T06:52:01.978Z,1015.22
2018-03-06T06:53:01.953Z,1015.20
2018-03-06T06:54:01.943Z,1015.23
2018-03-06T06:55:01.881Z,1015.24
2018-03-06T06:56:01.859Z,1015.26
2018-03-06T06:57:01.826Z,1015.27
2018-03-06T06:58:01.794Z,1015.26
2018-03-06T06:59:01.796Z,1015.27
2018-03-06T07:00:01.726Z,1015.23
2018-03-06T07:01:01.708Z,1015.25
2018-03-06T07:02:01.682Z,1015.27
2018-03-06T07:03:01.661Z,1015.23
2018-03-06T07:04:01.632Z,1015.24
2018-03-06T07:05:01.597Z,1015.27
2018-03-06T07:06:01.552Z,1015.25
2018-03-06T07:07:01.516Z,1015.27
2018-03-06T07:08:01.475Z,1015.22
2018-03-06T07:09:01.462Z,1015.24
2018-03-06T07:10:01.407Z,1015.26
2018-03-06T07:11:01.401Z,1015.25
2018-03-06T07:12:01.352Z,1015.27
2018-03-06T07:13:01.331Z,1015.26
2018-03-06T07:14:01.294Z,1015.27
2018-03-06T07:15:01.259Z,1015.30
2018-03-06T07:16:01.235Z,1015.24
2018-03-06T07:17:01.232Z,1015.27
2018-03-06T07:18:01.176Z,1015.27
2018-03-06T07:19:01.159Z,1015.25
2018-03-06T07:20:01.135Z,1015.27
2018-03-06T07:21:01.054Z,1015.23
2018-03-06T07:22:01.065Z,1015.28
2018-03-06T07:23:01.012Z,1015.29
2018-03-06T07:24:00.993Z,1015.28
2018-03-06T07:25:00.954Z,1015.23
2018-03-06T07:26:00.918Z,1015.24
2018-03-06T07:27:00.906Z,1015.22
2018-03-06T07:28:00.855Z,1015.17
2018-03-06T07:29:00.818Z,1015.17
2018-03-06T07:30:00.790Z,1015.16
2018-03-06T07:31:00.753Z,1015.21
2018-03-06T07:32:00.724Z,1015.22
2018-03-06T07:33:00.722Z,1015.17
2018-03-06T07:34:00.669Z,1015.22
2018-03-06T07:35:00.661Z,1015.15
2018-03-06T07:36:00.616Z,1015.17
2018-03-06T07:37:00.573Z,1015.20
2018-03-06T07:38:00.536Z,1015.16
2018-03-06T07:39:00.542Z,1015.21
2018-03-06T07:40:00.505Z,1015.23
2018-03-06T07:41:00.453Z,1015.22
2018-03-06T07:42:00.423Z,1015.19
2018-03-06T07:43:00.420Z,1015.18
2018-03-06T07:44:00.367Z,1015.17
2018-03-06T07:45:00.313Z,1015.20
2018-03-06T07:46:00.295Z,1015.22
2018-03-06T07:47:00.260Z,1015.17
2018-03-06T07:48:00.236Z,1015.14
2018-03-06T07:49:00.198Z,1015.18
2018-03-06T07:50:00.174Z,1015.20
2018-03-06T07:51:00.140Z,1015.23
2018-03-06T07:52:00.117Z,1015.25
2018-03-06T07:53:00.072Z,1015.22
2018-03-06T07:54:00.056Z,1015.24
2018-03-06T07:55:00.018Z,1015.24
2018-03-06T07:56:00.003Z,1015.26
2018-03-06T07:56:59.980Z,1015.27
2018-03-06T07:57:59.934Z,1015.30
2018-03-06T07:58:59.891Z,1015.32
2018-03-06T07:59:59.882Z,1015.35
2018-03-06T08:00:59.819Z,1015.33
2018-03-06T08:01:59.782Z,1015.38
2018-03-06T08:02:59.806Z,1015.38
2018-03-06T08:03:59.743Z,1015.39
2018-03-06T08:04:59.696Z,1015.43
2018-03-06T08:05:59.692Z,1015.40
2018-03-06T08:06:59.633Z,1015.42
2018-03-06T08:07:59.615Z,1015.41
2018-03-06T08:08:59.598Z,1015.41
2018-03-06T08:09:59.562Z,1015.39
2018-03-06T08:10:59.519Z,1015.40
2018-03-06T08:11:59.509Z,1015.41
2018-03-06T08:12:59.473Z,1015.37
2018-03-06T08:13:59.429Z,1015.39
2018-03-06T08:14:59.411Z,1015.40
2018-03-06T08:15:59.368Z,1015.36
2018-03-06T08:16:59.319Z,1015.42
2018-03-06T08:17:59.315Z,1015.41
2018-03-06T08:18:59.278Z,1015.39
2018-03-06T08:19:59.227Z,1015.38
2018-03-06T08:20:59.215Z,1015.41
2018-03-06T08:21:59.168Z,1015.43
2018-03-06T08:22:59.134Z,1015.41
2018-03-06T08:23:59.091Z,1015.48
2018-03-06T08:24:59.094Z,1015.46
2018-03-06T08:25:59.053Z,1015.51
2018-03-06T08:26:58.999Z,1015.49
2018-03-06T08:27:58.966Z,1015.47
2018-03-06T08:28:58.943Z,1015.49
2018-03-06T08:29:58.936Z,1015.51
2018-03-06T08:30:58.879Z,1015.52
2018-03-06T08:31:58.870Z,1015.55
2018-03-06T08:32:58.811Z,1015.59
2018-03-06T08:33:58.795Z,1015.58
2018-03-06T08:34:58.753Z,1015.56
2018-03-06T08:35:58.731Z,1015.55
2018-03-06T08:36:58.688Z,1015.55
2018-03-06T08:37:58.668Z,1015.52
2018-03-06T08:38:58.651Z,1015.49
2018-03-06T08:39:58.586Z,1015.47
2018-03-06T08:40:58.556Z,1015.48
2018-03-06T08:41:58.559Z,1015.49
2018-03-06T08:42:58.496Z,1015.47
2018-03-06T08:43:58.476Z,1015.49
2018-03-06T08:44:58.443Z,1015.48
2018-03-06T08:45:58.416Z,1015.49
2018-03-06T08:46:58.376Z,1015.50
2018-03-06T08:47:58.340Z,1015.49
2018-03-06T08:48:58.310Z,1015.51
2018-03-06T08:49:58.273Z,1015.56
2018-03-06T08:50:58.250Z,1015.53
2018-03-06T08:51:58.225Z,1015.53
2018-03-06T08:52:58.178Z,1015.55
2018-03-06T08:53:58.184Z,1015.56
2018-03-06T08:54:58.118Z,1015.55
2018-03-06T08:55:58.085Z,1015.57
2018-03-06T08:56:58.079Z,1015.64
2018-03-06T08:57:58.030Z,1015.67
2018-03-06T08:58:57.986Z,1015.68
2018-03-06T08:59:57.970Z,1015.66
2018-03-06T09:00:57.950Z,1015.68
2018-03-06T09:01:57.893Z,1015.71
2018-03-06T09:02:57.850Z,1015.72
2018-03-06T09:03:57.854Z,1015.72
2018-03-06T09:04:57.807Z,1015.73
2018-03-06T09:05:57.794Z,1015.68
2018-03-06T09:06:57.744Z,1015.72
2018-03-06T09:07:57.705Z,1015.71
2018-03-06T09:08:57.676Z,1015.74
2018-03-06T09:09:57.672Z,1015.69
2018-03-06T09:10:57.640Z,1015.71
2018-03-06T09:11:57.582Z,1015.74
2018-03-06T09:12:57.552Z,1015.75
2018-03-06T09:13:57.546Z,1015.70
2018-03-06T09:14:57.483Z,1015.74
2018-03-06T09:15:57.481Z,1015.73
2018-03-06T09:16:57.436Z,1015.69
2018-03-06T09:17:57.414Z,1015.71
2018-03-06T09:18:57.356Z,1015.70
2018-03-06T09:19:57.351Z,1015.71
2018-03-06T09:20:57.318Z,1015.73
2018-03-06T09:21:57.261Z,1015.76
2018-03-06T09:22:57.224Z,1015.73
2018-03-06T09:23:57.216Z,1015.81
2018-03-06T09:24:57.193Z,1015.84
2018-03-06T09:25:57.171Z,1015.84
2018-03-06T09:26:57.110Z,1015.90
2018-03-06T09:27:57.099Z,1015.90
2018-03-06T09:28:57.034Z,1015.92
2018-03-06T09:29:56.996Z,1015.93
2018-03-06T09:30:56.992Z,1015.94
2018-03-06T09:31:56.936Z,1015.94
2018-03-06T09:32:56.953Z,1015.96
2018-03-06T09:33:56.881Z,1015.97
2018-03-06T09:34:56.883Z,1015.97
2018-03-06T09:35:56.816Z,1015.98
2018-03-06T09:36:56.850Z,1015.95
2018-03-06T09:37:56.779Z,1016.01
2018-03-06T09:38:56.710Z,1015.99
2018-03-06T09:39:56.693Z,1016.00
2018-03-06T09:40:56.684Z,1015.99
2018-03-06T09:41:56.660Z,1016.00
2018-03-06T09:42:56.629Z,1016.00
2018-03-06T09:43:56.574Z,1015.96
2018-03-06T09:44:56.532Z,1016.00
2018-03-06T09:45:56.507Z,1016.00
2018-03-06T09:46:56.484Z,1016.01
2018-03-06T09:47:56.448Z,1016.04
2018-03-06T09:48:56.408Z,1016.04
2018-03-06T09:49:56.418Z,1016.09
2018-03-06T09:50:56.354Z,1016.13
2018-03-06T09:51:56.311Z,1016.11
2018-03-06T09:52:56.306Z,1016.14
2018-03-06T09:53:56.268Z,1016.16
2018-03-06T09:54:56.236Z,1016.17
2018-03-06T09:55:56.198Z,1016.19
2018-03-06T09:56:56.166Z,1016.22
2018-03-06T09:57:56.152Z,1016.21
2018-03-06T09:58:56.111Z,1016.25
2018-03-06T09:59:56.083Z,1016.26
2018-03-06T10:00:56.047Z,1016.23
2018-03-06T10:01:55.980Z,1016.22
2018-03-06T10:02:55.985Z,1016.29
2018-03-06T10:03:55.953Z,1016.30
2018-03-06T10:04:55.899Z,1016.36
2018-03-06T10:05:55.863Z,1016.38
2018-03-06T10:06:55.860Z,1016.43
2018-03-06T10:07:55.789Z,1016.43
2018-03-06T10:08:55.796Z,1016.43
2018-03-06T10:09:55.730Z,1016.48
2018-03-06T10:10:55.732Z,1016.50
2018-03-06T10:11:55.675Z,1016.44
2018-03-06T10:12:55.643Z,1016.45
2018-03-06T10:13:55.798Z,1016.48
2018-03-06T10:14:55.572Z,1016.48
2018-03-06T10:15:55.544Z,1016.49
2018-03-06T10:16:55.570Z,1016.51
2018-03-06T10:17:55.481Z,1016.51
2018-03-06T10:18:55.452Z,1016.52
2018-03-06T10:19:55.426Z,1016.57
2018-03-06T10:20:55.395Z,1016.57
2018-03-06T10:21:55.368Z,1016.59
2018-03-06T10:22:55.349Z,1016.62
2018-03-06T10:23:55.325Z,1016.66
2018-03-06T10:24:55.247Z,1016.67
2018-03-06T10:25:55.226Z,1016.65
2018-03-06T10:26:55.192Z,1016.62
2018-03-06T10:27:55.185Z,1016.69
2018-03-06T10:28:55.136Z,1016.64
2018-03-06T10:29:55.116Z,1016.63
2018-03-06T10:30:55.069Z,1016.67
2018-03-06T10:31:55.060Z,1016.71
2018-03-06T10:32:55.017Z,1016.73
2018-03-06T10:33:54.984Z,1016.76
2018-03-06T10:34:54.931Z,1016.74
2018-03-06T10:35:54.933Z,1016.77
2018-03-06T10:36:54.914Z,1016.77
2018-03-06T10:37:54.873Z,1016.75
2018-03-06T10:38:54.854Z,1016.79
2018-03-06T10:39:54.805Z,1016.79
2018-03-06T10:40:54.748Z,1016.81
2018-03-06T10:41:54.726Z,1016.81
2018-03-06T10:42:54.705Z,1016.80
2018-03-06T10:43:54.712Z,1016.80
2018-03-06T10:44:54.653Z,1016.82
2018-03-06T10:45:54.623Z,1016.87
2018-03-06T10:46:54.558Z,1016.84
2018-03-06T10:47:54.543Z,1016.90
2018-03-06T10:48:54.510Z,1016.92
2018-03-06T10:49:54.477Z,1016.93
2018-03-06T10:50:54.494Z,1016.93
2018-03-06T10:51:54.409Z,1016.95
2018-03-06T10:52:54.389Z,1016.99
2018-03-06T10:53:54.343Z,1016.99
2018-03-06T10:54:54.333Z,1017.00
2018-03-06T10:55:54.289Z,1017.03
2018-03-06T10:56:54.258Z,1017.00
2018-03-06T10:57:54.243Z,1017.07
2018-03-06T10:58:54.220Z,1017.04
2018-03-06T10:59:54.187Z,1017.03
2018-03-06T11:00:54.166Z,1017.06
2018-03-06T11:01:54.099Z,1017.04
2018-03-06T11:02:54.079Z,1017.05
2018-03-06T11:03:54.032Z,1017.09
2018-03-06T11:04:54.005Z,1017.05
2018-03-06T11:05:53.967Z,1017.03
2018-03-06T11:06:53.957Z,1017.05
2018-03-06T11:07:53.922Z,1017.08
2018-03-06T11:08:53.906Z,1017.08
2018-03-06T11:09:53.843Z,1017.09
2018-03-06T11:10:53.813Z,1017.09
2018-03-06T11:11:53.824Z,1017.10
2018-03-06T11:12:53.733Z,1017.14
2018-03-06T11:13:53.724Z,1017.16
2018-03-06T11:14:53.684Z,1017.18
2018-03-06T11:15:53.678Z,1017.15
2018-03-06T11:16:53.643Z,1017.14
2018-03-06T11:17:53.593Z,1017.12
2018-03-06T11:18:53.563Z,1017.13
2018-03-06T11:19:53.528Z,1017.11
2018-03-06T11:20:53.487Z,1017.15
2018-03-06T11:21:53.476Z,1017.15
2018-03-06T11:22:53.424Z,1017.12
2018-03-06T11:23:53.411Z,1017.16
2018-03-06T11:24:53.367Z,1017.10
2018-03-06T11:25:53.337Z,1017.15
2018-03-06T11:26:53.334Z,1017.11
2018-03-06T11:27:53.281Z,1017.11
2018-03-06T11:28:53.247Z,1017.14
2018-03-06T11:29:53.234Z,1017.14
2018-03-06T11:30:53.195Z,1017.11
2018-03-06T11:31:53.182Z,1017.12
2018-03-06T11:32:53.142Z,1017.18
2018-03-06T11:33:53.103Z,1017.13
2018-03-06T11:34:53.063Z,1017.15
2018-03-06T11:35:53.031Z,1017.17
2018-03-06T11:36:53.024Z,1017.18
2018-03-06T11:37:52.966Z,1017.21
2018-03-06T11:38:52.940Z,1017.22
2018-03-06T11:39:52.913Z,1017.22
2018-03-06T11:40:52.893Z,1017.26
2018-03-06T11:41:52.870Z,1017.27
2018-03-06T11:42:52.840Z,1017.25
2018-03-06T11:43:52.779Z,1017.27
2018-03-06T11:44:52.729Z,1017.28
2018-03-06T11:45:52.719Z,1017.29
2018-03-06T11:46:52.705Z,1017.32
2018-03-06T11:47:52.645Z,1017.33
2018-03-06T11:48:52.624Z,1017.28
2018-03-06T11:49:52.612Z,1017.29
2018-03-06T11:50:52.590Z,1017.27
2018-03-06T11:51:52.523Z,1017.28
2018-03-06T11:52:52.526Z,1017.27
2018-03-06T11:53:52.484Z,1017.26
2018-03-06T11:54:52.458Z,1017.21
2018-03-06T11:55:52.399Z,1017.26
2018-03-06T11:56:52.377Z,1017.31
2018-03-06T11:57:52.338Z,1017.26
2018-03-06T11:58:52.324Z,1017.23
2018-03-06T11:59:52.301Z,1017.24
2018-03-06T12:00:52.249Z,1017.26
2018-03-06T12:01:52.250Z,1017.24
2018-03-06T12:02:52.218Z,1017.26
2018-03-06T12:03:52.157Z,1017.29
2018-03-06T12:04:52.150Z,1017.24